Terminal Aerodrome Forecast
Issued by NWS Grand Forks, ND

Home | Current Version | Previous Version | Graphics & Text | Print | Product List | Glossary On
Versions: 1 2 3 4 5 6 7 8 9 10 11 12 13 14 15 16
000
FTUS43 KFGF 270520
TAFFAR
TAF
KFAR 270520Z 2706/2806 02008KT P6SM VCSH BKN080
     FM271000 02007KT P6SM BKN080
     FM271900 01009KT P6SM SCT150=

USA.gov is the U.S. government's official web portal to all federal, state and local government web resources and services.